Time;durP1;ratioP1;P1;durP2;ratioP2;P2;SDS_P1;SDS_P2;PMS_P1;PMS_P2;Temp;Humidity;BMP_temperature;BMP_pressure;BME280_temperature;BME280_humidity;BME280_pressure;Samples;Min_cycle;Max_cycle;Signal;HPM_P1;HPM_P2
2021/04/13 00:02:43;;;;;;;10.97;8.57;;;;;;;7.24;59.68;99578.52;258223;1116;114451;-69
2021/04/13 00:07:47;;;;;;;11.78;8.90;;;;;;;7.17;60.23;99579.68;258170;1116;114421;-69
2021/04/13 00:12:52;;;;;;;11.68;8.25;;;;;;;7.05;59.71;99580.15;258451;1116;114372;-75
2021/04/13 00:17:58;;;;;;;11.15;8.68;;;;;;;6.95;59.48;99576.13;258298;1116;114245;-73
2021/04/13 00:23:01;;;;;;;12.53;9.00;;;;;;;6.81;59.85;99574.88;258509;1116;114251;-74
2021/04/13 00:28:04;;;;;;;9.58;7.23;;;;;;;6.77;60.43;99583.00;258405;1116;114488;-74
2021/04/13 00:33:06;;;;;;;7.90;5.50;;;;;;;6.70;59.57;99586.80;258609;1116;113898;-73
2021/04/13 00:38:31;;;;;;;7.50;5.55;;;;;;;6.56;60.09;99589.95;254843;1116;114390;-75
2021/04/13 00:43:38;;;;;;;7.10;5.88;;;;;;;6.52;60.00;99580.38;258497;1116;114287;-68
2021/04/13 00:48:43;;;;;;;7.38;5.68;;;;;;;6.48;60.47;99590.21;258419;1116;114200;-69
2021/04/13 00:53:50;;;;;;;6.98;5.43;;;;;;;6.44;60.62;99590.39;257215;1115;114410;-73
2021/04/13 00:59:07;;;;;;;7.20;5.08;;;;;;;6.39;60.76;99596.71;258486;1116;113986;-74
2021/04/13 01:04:21;;;;;;;5.30;3.75;;;;;;;6.27;60.26;99599.78;257425;1116;113951;-75
2021/04/13 01:09:27;;;;;;;4.93;3.83;;;;;;;6.13;60.57;99604.69;258034;1116;114048;-74
2021/04/13 01:14:32;;;;;;;5.18;4.30;;;;;;;5.99;60.68;99612.23;258482;1116;116091;-68
2021/04/13 01:19:53;;;;;;;;;;;;;;;5.91;60.96;99615.97;258512;1116;115526;-68
2021/04/13 01:25:24;;;;;;;5.58;4.00;;;;;;;5.87;60.68;99624.03;258603;1115;101767;-71
2021/04/13 01:30:35;;;;;;;5.90;4.18;;;;;;;5.88;61.18;99628.42;258401;1116;114498;-67
2021/04/13 01:35:46;;;;;;;5.75;4.18;;;;;;;5.91;60.78;99630.97;257591;1116;114330;-71
2021/04/13 01:46:00;;;;;;;6.33;5.00;;;;;;;5.83;60.95;99640.90;254156;1116;113933;-69
2021/04/13 01:51:05;;;;;;;5.30;4.00;;;;;;;5.80;61.32;99649.78;253103;1116;114391;-69
2021/04/13 01:56:31;;;;;;;6.23;4.78;;;;;;;5.70;60.85;99653.63;258425;1116;114028;-68
2021/04/13 02:01:45;;;;;;;5.18;4.08;;;;;;;5.59;61.23;99655.77;258334;1116;115051;-68
2021/04/13 02:07:00;;;;;;;5.15;4.25;;;;;;;5.49;61.07;99660.47;258488;1116;114436;-68
2021/04/13 02:12:15;;;;;;;;;;;;;;;5.44;61.73;99671.17;257297;1115;114358;-69
2021/04/13 02:17:32;;;;;;;4.28;3.18;;;;;;;5.45;61.36;99674.67;258557;1115;100844;-68
2021/04/13 02:22:41;;;;;;;4.98;3.30;;;;;;;5.53;61.78;99688.48;258313;1116;114619;-68
2021/04/13 02:27:47;;;;;;;3.63;2.80;;;;;;;5.56;61.72;99687.54;258366;1116;114062;-68
2021/04/13 02:32:51;;;;;;;5.70;3.30;;;;;;;5.55;61.37;99694.60;257955;1116;113863;-74
2021/04/13 02:37:59;;;;;;;4.10;3.00;;;;;;;5.50;61.05;99698.28;258458;1116;114443;-70
2021/04/13 02:43:12;;;;;;;3.50;2.83;;;;;;;5.39;61.85;99706.53;257138;1115;113976;-70
2021/04/13 02:48:22;;;;;;;5.50;2.90;;;;;;;5.26;61.98;99699.89;258569;1116;113713;-68
2021/04/13 02:53:42;;;;;;;3.45;2.88;;;;;;;5.17;61.77;99691.34;256759;1116;113844;-71
2021/04/13 02:59:05;;;;;;;3.90;3.35;;;;;;;5.09;61.55;99692.47;255096;1115;114221;-73
2021/04/13 03:04:09;;;;;;;5.25;3.73;;;;;;;4.94;61.92;99693.78;258495;1116;114096;-73
2021/04/13 03:09:15;;;;;;;4.30;3.53;;;;;;;4.87;61.97;99695.73;258508;1116;115897;-75
2021/04/13 03:14:20;;;;;;;4.83;3.68;;;;;;;4.85;62.32;99689.63;253036;1116;114938;-77
2021/04/13 03:19:27;;;;;;;5.63;4.13;;;;;;;4.84;61.77;99698.45;257254;1116;115528;-76
2021/04/13 03:24:37;;;;;;;4.28;3.50;;;;;;;4.85;62.44;99697.53;258332;1116;113839;-75
2021/04/13 03:29:50;;;;;;;4.65;3.58;;;;;;;4.91;62.28;99693.88;257795;1116;113991;-75
2021/04/13 03:34:54;;;;;;;4.78;3.18;;;;;;;4.93;62.31;99707.89;257002;1116;113873;-68
2021/04/13 03:40:04;;;;;;;5.25;3.90;;;;;;;4.86;62.43;99709.84;258427;1116;113693;-69
2021/04/13 03:45:10;;;;;;;3.88;3.33;;;;;;;4.83;62.59;99720.47;258412;1116;114640;-69
2021/04/13 03:50:21;;;;;;;4.78;3.63;;;;;;;4.77;62.60;99725.04;258443;1116;113864;-69
2021/04/13 03:55:24;;;;;;;3.95;3.55;;;;;;;4.71;62.57;99728.70;256932;1115;114135;-78
2021/04/13 04:00:28;;;;;;;3.57;3.20;;;;;;;4.67;62.60;99727.92;256236;1116;114201;-75
2021/04/13 04:05:53;;;;;;;3.93;3.30;;;;;;;4.66;62.70;99742.02;253205;1116;114114;-69
2021/04/13 04:10:58;;;;;;;4.17;3.50;;;;;;;4.75;62.94;99735.61;257014;1116;114577;-70
2021/04/13 04:16:14;;;;;;;5.13;3.85;;;;;;;4.80;62.84;99748.69;252806;1116;115047;-69
2021/04/13 04:21:35;;;;;;;4.15;3.60;;;;;;;4.83;63.34;99751.25;258567;1116;115452;-70
2021/04/13 04:26:47;;;;;;;4.10;3.48;;;;;;;4.79;62.48;99752.21;258358;1116;114028;-69
2021/04/13 04:31:50;;;;;;;4.30;3.80;;;;;;;4.81;62.93;99764.45;258517;1116;114655;-69
2021/04/13 04:36:55;;;;;;;3.75;3.10;;;;;;;4.78;62.90;99768.95;258311;1116;113947;-70
2021/04/13 04:42:05;;;;;;;;;;;;;;;4.72;62.97;99777.88;256265;1116;114645;-69
2021/04/13 04:47:35;;;;;;;3.20;2.53;;;;;;;4.70;62.68;99782.34;258592;1116;117048;-68
2021/04/13 04:52:38;;;;;;;3.18;2.60;;;;;;;4.71;62.43;99787.56;258542;1116;113685;-69
2021/04/13 04:57:42;;;;;;;3.73;2.00;;;;;;;4.71;62.62;99792.83;258516;1116;113602;-68
2021/04/13 05:02:44;;;;;;;2.68;2.00;;;;;;;4.81;62.69;99798.73;258376;1116;114288;-69
2021/04/13 05:07:47;;;;;;;2.88;2.00;;;;;;;4.87;62.97;99795.08;258515;1116;114068;-69
2021/04/13 05:12:50;;;;;;;1.98;1.78;;;;;;;4.91;62.47;99796.72;258532;1116;114045;-69
2021/04/13 05:17:53;;;;;;;3.10;2.13;;;;;;;4.88;61.60;99804.72;258388;1116;113878;-69
2021/04/13 05:22:56;;;;;;;4.50;2.63;;;;;;;4.96;62.81;99813.31;256850;1116;114138;-69
2021/04/13 05:27:59;;;;;;;2.40;2.05;;;;;;;4.93;62.27;99822.16;257864;1116;199638;-70
2021/04/13 05:33:03;;;;;;;3.58;2.30;;;;;;;4.87;62.23;99817.04;258511;1116;114067;-70
2021/04/13 05:38:12;;;;;;;2.55;1.83;;;;;;;4.86;61.91;99828.50;254553;1115;114502;-68
2021/04/13 05:43:19;;;;;;;3.78;2.10;;;;;;;4.78;62.12;99821.69;258471;1116;113825;-74
2021/04/13 05:56:06;;;;;;;2.98;1.88;;;;;;;4.61;61.90;99838.79;258718;1116;115518;-68
2021/04/13 06:01:10;;;;;;;2.95;2.10;;;;;;;4.69;62.21;99841.26;256697;1115;114438;-69
2021/04/13 06:06:14;;;;;;;2.70;2.20;;;;;;;4.69;62.18;99851.80;257893;1116;114503;-75
2021/04/13 06:11:26;;;;;;;4.55;2.70;;;;;;;4.73;62.09;99853.45;255655;1116;114082;-77
2021/04/13 06:16:35;;;;;;;3.73;2.30;;;;;;;4.71;62.25;99853.47;256160;1115;114462;-71
2021/04/13 06:21:41;;;;;;;4.73;2.60;;;;;;;4.66;62.26;99858.02;256796;1116;114377;-75
2021/04/13 06:26:45;;;;;;;5.40;2.80;;;;;;;4.69;62.62;99870.26;252180;1116;114563;-70
2021/04/13 06:31:48;;;;;;;3.15;2.40;;;;;;;4.69;62.39;99872.89;256736;1116;114897;-75
2021/04/13 06:36:51;;;;;;;3.68;2.40;;;;;;;4.66;62.58;99879.10;258375;1116;114926;-75
2021/04/13 06:42:09;;;;;;;3.40;2.48;;;;;;;4.70;62.82;99885.16;257067;1116;114566;-74
2021/04/13 06:47:37;;;;;;;2.65;1.98;;;;;;;4.72;62.86;99892.14;258131;1116;113869;-76
2021/04/13 06:52:55;;;;;;;2.80;1.98;;;;;;;4.79;62.36;99895.49;254852;1116;114519;-70
2021/04/13 06:58:19;;;;;;;2.90;2.20;;;;;;;4.84;62.74;99890.95;258522;1116;114716;-70
2021/04/13 07:03:31;;;;;;;3.53;2.43;;;;;;;4.84;62.89;99895.37;258513;1116;114632;-69
2021/04/13 07:08:40;;;;;;;3.00;2.65;;;;;;;4.87;62.26;99895.30;258439;1116;114684;-70
2021/04/13 07:13:50;;;;;;;3.88;3.00;;;;;;;4.86;62.26;99902.34;258428;1116;114327;-70
2021/04/13 07:19:36;;;;;;;4.73;3.20;;;;;;;4.81;62.53;99898.94;258448;1116;114210;-69
2021/04/13 07:25:05;;;;;;;4.33;3.20;;;;;;;4.86;62.34;99899.70;258019;1116;114385;-68
2021/04/13 07:30:22;;;;;;;5.28;2.90;;;;;;;4.87;62.25;99895.30;258312;1115;114482;-69
2021/04/13 07:35:31;;;;;;;4.20;2.55;;;;;;;4.86;62.54;99901.48;257288;1116;114542;-69
2021/04/13 07:40:38;;;;;;;3.98;2.43;;;;;;;4.97;62.41;99891.52;258387;1116;114542;-68
2021/04/13 07:46:02;;;;;;;4.63;2.35;;;;;;;5.07;62.44;99894.80;258431;1116;115283;-68
2021/04/13 07:51:32;;;;;;;9.30;2.80;;;;;;;5.14;62.63;99891.09;257847;1116;117273;-69
2021/04/13 07:56:46;;;;;;;4.20;2.35;;;;;;;5.21;62.71;99890.88;258477;1116;114005;-67
2021/04/13 08:01:51;;;;;;;5.23;3.05;;;;;;;5.28;62.31;99893.36;258529;1116;114475;-68
2021/04/13 08:06:59;;;;;;;3.10;2.53;;;;;;;5.31;62.43;99885.36;258255;1116;114137;-69
2021/04/13 08:12:11;;;;;;;4.28;2.63;;;;;;;5.33;62.31;99896.72;258561;1116;114105;-68
2021/04/13 08:17:14;;;;;;;3.78;2.60;;;;;;;5.39;62.29;99899.20;258441;1116;114218;-75
2021/04/13 08:22:20;;;;;;;3.75;2.60;;;;;;;5.46;62.13;99903.41;258538;1116;114413;-76
2021/04/13 08:27:34;;;;;;;3.63;2.93;;;;;;;5.51;62.18;99890.97;258422;1115;114324;-73
2021/04/13 08:33:02;;;;;;;4.80;3.08;;;;;;;5.60;62.71;99887.19;258471;1115;114265;-72
2021/04/13 08:46:06;;;;;;;6.15;3.50;;;;;;;5.85;62.27;99879.45;258176;1116;115400;-76
2021/04/13 08:51:17;;;;;;;4.18;3.25;;;;;;;5.92;61.94;99879.25;257943;1116;114136;-72
2021/04/13 08:56:28;;;;;;;6.03;3.73;;;;;;;5.95;61.82;99888.86;258434;1116;113906;-73
2021/04/13 09:01:39;;;;;;;4.73;3.43;;;;;;;5.99;61.59;99887.00;258310;1116;114367;-73
2021/04/13 09:06:55;;;;;;;4.33;3.38;;;;;;;6.02;61.29;99881.63;258186;1116;115649;-74
2021/04/13 09:12:29;;;;;;;4.20;3.38;;;;;;;5.99;61.34;99877.28;257555;1116;114393;-73
2021/04/13 09:17:45;;;;;;;4.95;3.20;;;;;;;5.93;61.10;99883.61;258330;1116;114148;-68
2021/04/13 09:23:14;;;;;;;3.68;2.90;;;;;;;5.91;60.76;99866.92;258498;1116;113794;-74
2021/04/13 09:28:20;;;;;;;4.93;3.45;;;;;;;5.92;61.32;99873.96;258284;1116;114488;-70
2021/04/13 09:33:37;;;;;;;5.08;3.28;;;;;;;5.95;61.16;99870.38;258421;1115;114167;-70
2021/04/13 09:38:51;;;;;;;3.55;3.03;;;;;;;6.02;61.16;99866.63;258418;1116;114047;-76
2021/04/13 09:44:08;;;;;;;3.68;2.85;;;;;;;6.16;61.29;99869.71;258072;1116;115208;-75
2021/04/13 09:49:32;;;;;;;6.65;3.45;;;;;;;6.23;61.39;99865.10;258440;1116;114167;-75
2021/04/13 09:54:42;;;;;;;4.48;3.23;;;;;;;6.25;60.83;99865.05;258438;1116;114239;-74
2021/04/13 10:00:06;;;;;;;6.98;3.83;;;;;;;6.28;61.43;99857.88;258408;1116;113846;-74
2021/04/13 10:05:27;;;;;;;6.93;3.53;;;;;;;6.37;61.38;99852.31;258402;1116;114089;-74
2021/04/13 10:10:48;;;;;;;4.33;3.33;;;;;;;6.43;60.98;99847.76;258283;1116;114085;-68
2021/04/13 10:16:13;;;;;;;4.38;3.43;;;;;;;6.48;60.72;99848.46;258515;1116;114212;-68
2021/04/13 10:21:40;;;;;;;6.33;3.60;;;;;;;6.55;61.57;99826.19;258325;1116;113827;-69
2021/04/13 10:27:02;;;;;;;6.08;3.35;;;;;;;6.62;60.74;99838.29;258447;1116;113820;-68
2021/04/13 10:32:47;;;;;;;5.40;3.35;;;;;;;6.62;60.59;99820.67;258429;1116;114363;-75
2021/04/13 10:38:08;;;;;;;4.90;3.18;;;;;;;6.64;60.21;99825.89;258489;1115;113913;-73
2021/04/13 10:43:29;;;;;;;6.30;3.20;;;;;;;6.68;60.28;99829.30;258507;1116;114203;-74
2021/04/13 10:48:53;;;;;;;6.95;2.85;;;;;;;6.78;60.82;99817.50;258440;1116;114900;-73
2021/04/13 10:53:59;;;;;;;4.38;2.90;;;;;;;6.83;60.62;99813.78;258499;1115;114181;-73
2021/04/13 10:59:46;;;;;;;6.10;2.93;;;;;;;6.82;59.72;99814.68;258473;1116;114745;-73
2021/04/13 11:05:03;;;;;;;4.93;2.90;;;;;;;6.87;59.86;99798.67;258434;1116;114032;-67
2021/04/13 11:10:37;;;;;;;11.43;2.95;;;;;;;6.92;59.78;99791.42;258462;1116;114139;-69
2021/04/13 11:16:03;;;;;;;6.00;2.68;;;;;;;7.02;60.10;99800.77;258400;1116;114732;-68
2021/04/13 11:21:37;;;;;;;6.70;2.55;;;;;;;7.09;59.53;99796.98;258375;1116;114683;-69
2021/04/13 11:27:09;;;;;;;9.75;3.13;;;;;;;7.13;60.25;99788.93;258355;1116;114306;-75
2021/04/13 11:32:30;;;;;;;6.68;2.65;;;;;;;7.18;59.53;99789.64;258400;1116;113839;-75
2021/04/13 11:37:33;;;;;;;9.68;2.35;;;;;;;7.20;60.02;99786.03;258396;1116;115652;-67
2021/04/13 11:42:40;;;;;;;6.70;2.55;;;;;;;7.22;59.34;99778.02;258416;1115;114100;-70
2021/04/13 11:47:50;;;;;;;6.10;2.73;;;;;;;7.29;59.26;99775.08;258402;1116;113998;-76
2021/04/13 11:53:01;;;;;;;6.95;2.70;;;;;;;7.33;59.48;99781.13;252798;1116;113970;-73
2021/04/13 11:58:25;;;;;;;4.28;2.33;;;;;;;7.34;58.70;99777.58;258391;1116;114055;-69
2021/04/13 12:03:32;;;;;;;4.80;2.00;;;;;;;7.31;58.60;99781.20;258307;1116;114966;-73
2021/04/13 12:08:35;;;;;;;4.73;2.47;;;;;;;7.33;58.46;99778.48;252073;1116;114159;-76
2021/04/13 12:13:49;;;;;;;6.75;2.40;;;;;;;7.37;58.88;99764.23;255536;1116;114823;-69
2021/04/13 12:19:24;;;;;;;7.87;2.60;;;;;;;7.31;58.25;99757.38;254253;1116;114469;-69
2021/04/13 12:24:39;;;;;;;5.15;2.40;;;;;;;7.26;59.16;99751.36;257627;1116;114224;-70
2021/04/13 12:29:43;;;;;;;6.33;2.10;;;;;;;7.20;58.60;99758.67;258590;1116;113955;-83
2021/04/13 12:34:50;;;;;;;7.55;2.98;;;;;;;7.20;58.74;99751.62;257830;1116;114236;-76
2021/04/13 12:39:55;;;;;;;5.55;2.48;;;;;;;7.22;58.55;99738.31;256358;1116;114114;-79
2021/04/13 12:45:16;;;;;;;;;;;;;;;7.20;58.79;99734.84;258107;1116;113747;-76
2021/04/13 12:50:33;;;;;;;7.63;2.80;;;;;;;7.17;58.44;99732.31;258551;1116;101641;-81
2021/04/13 12:55:36;;;;;;;3.15;2.28;;;;;;;7.22;58.92;99727.72;257567;1116;114469;-77
2021/04/13 13:00:57;;;;;;;7.28;2.93;;;;;;;7.23;58.81;99718.85;256926;1116;113964;-78
2021/04/13 13:06:13;;;;;;;5.50;3.00;;;;;;;7.26;58.22;99721.39;256723;1116;114173;-77
2021/04/13 13:11:17;;;;;;;4.53;3.00;;;;;;;7.22;58.06;99720.64;256513;1116;114298;-76
2021/04/13 13:16:24;;;;;;;4.38;2.80;;;;;;;7.19;58.98;99718.11;257619;1115;113787;-76
2021/04/13 13:21:30;;;;;;;3.50;2.73;;;;;;;7.10;58.21;99714.03;256079;1116;114237;-74
2021/04/13 13:26:34;;;;;;;5.65;2.48;;;;;;;7.06;58.94;99707.10;256262;1115;114210;-80
2021/04/13 13:31:37;;;;;;;2.70;2.03;;;;;;;6.92;59.39;99719.98;256871;1116;113799;-80
2021/04/13 13:36:44;;;;;;;4.00;2.23;;;;;;;6.86;58.67;99714.91;255362;1115;114525;-81
2021/04/13 13:42:19;;;;;;;;;;;;;;;6.86;59.30;99707.86;254493;1116;113879;-82
2021/04/13 13:47:24;;;;;;;4.38;2.68;;;;;;;6.83;58.83;99683.30;253406;1116;103151;-83
2021/04/13 13:52:50;;;;;;;6.70;3.15;;;;;;;6.81;59.65;99690.41;258398;1116;113740;-80
2021/04/13 13:57:58;;;;;;;;;;;;;;;6.78;59.95;99688.73;257120;1116;114320;-79
2021/04/13 14:03:29;;;;;;;5.58;2.68;;;;;;;6.77;59.04;99687.02;257886;1116;102836;-76
2021/04/13 14:08:35;;;;;;;3.75;3.13;;;;;;;6.78;60.06;99683.44;254463;1115;114383;-77
2021/04/13 14:13:40;;;;;;;5.48;3.35;;;;;;;6.76;60.09;99689.70;255629;1115;114317;-74
2021/04/13 14:18:51;;;;;;;4.55;2.83;;;;;;;6.65;59.62;99682.16;258414;1116;114013;-74
2021/04/13 14:24:07;;;;;;;7.38;3.23;;;;;;;6.56;60.39;99679.86;258373;1116;114039;-72
2021/04/13 14:29:19;;;;;;;4.73;2.95;;;;;;;6.54;60.28;99671.96;258340;1116;115031;-73
2021/04/13 14:34:23;;;;;;;5.40;3.33;;;;;;;6.58;60.82;99668.28;258476;1116;114148;-72
2021/04/13 14:39:28;;;;;;;4.80;3.20;;;;;;;6.62;60.31;99676.97;255519;1116;114325;-71
2021/04/13 14:44:31;;;;;;;5.27;3.80;;;;;;;6.65;60.45;99671.58;258048;1115;114360;-72
2021/04/13 14:49:34;;;;;;;8.35;4.50;;;;;;;6.63;60.30;99662.85;255967;1116;114835;-79
2021/04/13 14:54:37;;;;;;;6.83;4.43;;;;;;;6.63;61.04;99668.14;258424;1116;114472;-78
2021/04/13 14:59:42;;;;;;;7.15;4.15;;;;;;;6.61;60.53;99669.97;253701;1116;114369;-78
2021/04/13 15:04:46;;;;;;;8.63;4.68;;;;;;;6.57;61.05;99663.92;257339;1116;114064;-78
2021/04/13 15:09:48;;;;;;;7.50;4.53;;;;;;;6.52;60.91;99664.99;257497;1116;115277;-82
2021/04/13 15:14:51;;;;;;;8.73;4.93;;;;;;;6.46;60.74;99663.45;258071;1116;114054;-79
2021/04/13 15:19:57;;;;;;;8.43;5.05;;;;;;;6.41;61.33;99657.45;258471;1116;113715;-79
2021/04/13 15:25:00;;;;;;;11.05;5.40;;;;;;;6.43;61.00;99646.84;258360;1116;114191;-79
2021/04/13 15:30:05;;;;;;;7.65;4.48;;;;;;;6.45;61.22;99658.20;258250;1116;114394;-77
2021/04/13 15:35:20;;;;;;;9.03;4.98;;;;;;;6.47;61.67;99645.80;258294;1116;114436;-72
2021/04/13 15:40:27;;;;;;;9.18;5.10;;;;;;;6.50;61.06;99635.98;258463;1116;114215;-78
2021/04/13 15:45:36;;;;;;;8.08;5.38;;;;;;;6.52;61.32;99644.73;258469;1116;115424;-78
2021/04/13 15:50:39;;;;;;;9.18;5.60;;;;;;;6.49;61.17;99643.95;256966;1116;114419;-78
2021/04/13 15:55:45;;;;;;;7.80;5.28;;;;;;;6.43;61.18;99641.55;258485;1116;114537;-79
2021/04/13 16:00:55;;;;;;;6.45;4.88;;;;;;;6.38;61.56;99644.33;258223;1116;114145;-71
2021/04/13 16:05:59;;;;;;;8.50;5.18;;;;;;;6.33;61.92;99648.93;258405;1116;114203;-68
2021/04/13 16:11:03;;;;;;;8.10;5.15;;;;;;;6.26;61.43;99642.14;258321;1116;114392;-70
2021/04/13 16:16:06;;;;;;;8.48;5.60;;;;;;;6.19;62.12;99645.91;258405;1116;115241;-71
2021/04/13 16:21:09;;;;;;;8.10;5.93;;;;;;;6.11;61.56;99640.86;258449;1116;114016;-70
2021/04/13 16:26:12;;;;;;;10.98;6.60;;;;;;;6.05;61.76;99633.17;258395;1116;114194;-67
2021/04/13 16:31:28;;;;;;;12.00;6.73;;;;;;;6.02;62.25;99639.41;258423;1114;114354;-70
2021/04/13 16:36:48;;;;;;;12.33;7.23;;;;;;;5.99;61.51;99636.02;258441;1116;114815;-69
2021/04/13 16:42:06;;;;;;;13.50;7.73;;;;;;;5.97;62.08;99643.11;258419;1110;114677;-75
2021/04/13 16:47:21;;;;;;;13.40;8.67;;;;;;;5.93;62.16;99630.01;258260;1116;114806;-77
2021/04/13 16:52:34;;;;;;;15.05;9.00;;;;;;;5.90;62.26;99635.36;258255;1116;115297;-75
2021/04/13 16:57:55;;;;;;;12.70;8.35;;;;;;;5.84;62.21;99635.59;258356;1118;114386;-80
2021/04/13 17:03:17;;;;;;;11.08;8.08;;;;;;;5.77;62.10;99638.45;258215;1117;116071;-73
2021/04/13 17:08:28;;;;;;;13.38;8.15;;;;;;;5.66;62.36;99639.67;258306;1119;114249;-73
2021/04/13 17:13:38;;;;;;;16.93;8.60;;;;;;;5.57;62.74;99637.34;258288;1118;114458;-73
2021/04/13 17:18:47;;;;;;;13.50;8.37;;;;;;;5.49;62.37;99638.48;258319;1116;114301;-73
2021/04/13 17:23:52;;;;;;;13.25;9.38;;;;;;;5.40;62.82;99647.55;258416;1118;114705;-72
2021/04/13 17:28:58;;;;;;;12.28;8.60;;;;;;;5.35;62.41;99654.76;258305;1117;114482;-72
2021/04/13 17:34:02;;;;;;;14.18;8.90;;;;;;;5.32;63.19;99649.57;258243;1118;115285;-71
2021/04/13 17:39:20;;;;;;;14.40;8.90;;;;;;;5.29;63.11;99658.44;258313;1117;115808;-72
2021/04/13 17:44:37;;;;;;;14.55;10.18;;;;;;;5.25;62.63;99662.09;258355;1116;114302;-70
2021/04/13 17:49:45;;;;;;;12.98;9.65;;;;;;;5.20;63.08;99670.16;258245;1117;114380;-69
2021/04/13 17:54:48;;;;;;;14.58;9.58;;;;;;;5.14;62.93;99670.33;258299;1118;114541;-70
2021/04/13 17:59:57;;;;;;;15.65;9.88;;;;;;;5.06;63.01;99682.00;258311;1116;115317;-70
2021/04/13 18:05:22;;;;;;;12.38;9.00;;;;;;;5.02;62.94;99680.38;258245;1116;115967;-69
2021/04/13 18:10:28;;;;;;;17.15;10.80;;;;;;;4.94;63.43;99678.82;258226;1118;114599;-71
2021/04/13 18:15:40;;;;;;;15.20;10.43;;;;;;;4.94;63.09;99692.01;258418;1116;114562;-71
2021/04/13 18:20:47;;;;;;;15.10;10.30;;;;;;;4.84;63.02;99687.91;258260;1118;114978;-72
2021/04/13 18:25:59;;;;;;;17.93;11.08;;;;;;;4.84;62.78;99684.41;258404;1118;114767;-72
2021/04/13 18:31:41;;;;;;;18.98;11.60;;;;;;;4.85;63.63;99683.48;258337;1117;114627;-73
2021/04/13 18:36:58;;;;;;;16.78;11.25;;;;;;;4.91;63.71;99686.82;258217;1118;114868;-73
2021/04/13 18:42:20;;;;;;;18.88;12.18;;;;;;;4.92;63.64;99683.27;258250;1116;114701;-72
2021/04/13 18:47:33;;;;;;;19.75;12.65;;;;;;;4.93;63.72;99684.16;258406;1116;114520;-71
2021/04/13 18:52:51;;;;;;;17.48;11.28;;;;;;;4.93;63.89;99689.43;258231;1116;114610;-72
2021/04/13 18:58:14;;;;;;;18.38;10.80;;;;;;;4.87;63.78;99687.82;258241;1117;114613;-72
2021/04/13 19:03:22;;;;;;;15.60;11.13;;;;;;;4.84;63.53;99682.63;258184;1117;114426;-72
2021/04/13 19:08:48;;;;;;;14.80;10.55;;;;;;;4.79;63.58;99687.19;258391;1117;115042;-65
2021/04/13 19:14:21;;;;;;;17.75;11.23;;;;;;;4.78;63.90;99680.16;258367;1116;114888;-70
2021/04/13 19:19:31;;;;;;;15.63;9.98;;;;;;;4.81;63.90;99676.58;258410;1117;114394;-69
2021/04/13 19:24:45;;;;;;;16.78;9.83;;;;;;;4.85;63.94;99665.03;258332;1119;114900;-69
2021/04/13 19:30:00;;;;;;;18.80;11.55;;;;;;;4.86;63.77;99679.97;258379;1116;115091;-69
2021/04/13 19:35:19;;;;;;;15.60;11.15;;;;;;;4.89;64.59;99672.83;258415;1116;114606;-72
2021/04/13 19:40:25;;;;;;;17.05;11.65;;;;;;;4.89;63.95;99677.21;258434;1116;114519;-75
2021/04/13 19:45:55;;;;;;;16.15;11.23;;;;;;;4.84;63.75;99676.50;258269;1116;114413;-75
2021/04/13 19:51:05;;;;;;;15.48;11.25;;;;;;;4.80;63.90;99667.81;258347;1116;114996;-75
2021/04/13 19:56:11;;;;;;;15.73;10.80;;;;;;;4.78;64.17;99661.70;258362;1116;114863;-73
2021/04/13 20:01:16;;;;;;;15.28;10.88;;;;;;;4.72;63.92;99660.13;258338;1116;114722;-74
2021/04/13 20:06:24;;;;;;;13.20;9.75;;;;;;;4.63;63.75;99655.10;257318;1116;116590;-73
2021/04/13 20:11:37;;;;;;;14.53;10.25;;;;;;;4.57;63.75;99657.05;258329;1116;114755;-69
2021/04/13 20:16:47;;;;;;;14.13;8.60;;;;;;;4.56;63.97;99650.05;257624;1117;114670;-73
2021/04/13 20:21:53;;;;;;;18.98;12.35;;;;;;;4.56;64.18;99645.64;258329;1117;114637;-73
2021/04/13 20:26:58;;;;;;;;;;;;;;;4.56;63.97;99655.33;258192;1118;114612;-75
2021/04/13 20:32:20;;;;;;;15.93;11.50;;;;;;;4.54;64.07;99651.86;258499;1117;102307;-73
2021/04/13 20:43:09;;;;;;;21.68;13.78;;;;;;;4.36;63.95;99638.28;258340;1117;114603;-69
2021/04/13 20:48:18;;;;;;;18.60;14.13;;;;;;;4.29;63.78;99644.63;258448;1117;114408;-71
2021/04/13 20:53:29;;;;;;;21.40;15.55;;;;;;;4.20;64.32;99642.22;258209;1116;114716;-72
2021/04/13 20:58:43;;;;;;;19.95;16.28;;;;;;;4.15;63.94;99641.49;258294;1116;114704;-72
2021/04/13 21:03:50;;;;;;;25.08;18.75;;;;;;;4.14;64.33;99631.84;258366;1118;114630;-73
2021/04/13 21:09:02;;;;;;;26.40;18.60;;;;;;;4.15;64.38;99625.69;258374;1116;115975;-74
2021/04/13 21:14:07;;;;;;;26.93;18.83;;;;;;;4.20;64.96;99619.38;258355;1116;114468;-71
2021/04/13 21:19:15;;;;;;;26.30;19.50;;;;;;;4.22;64.63;99608.81;258353;1116;114545;-71
2021/04/13 21:24:25;;;;;;;27.25;18.35;;;;;;;4.23;64.64;99607.90;258383;1118;114568;-70
2021/04/13 21:29:29;;;;;;;26.60;19.23;;;;;;;4.23;64.51;99607.90;258368;1117;115589;-72
2021/04/13 21:34:43;;;;;;;25.93;18.23;;;;;;;4.22;64.66;99607.04;258285;1116;114115;-73
2021/04/13 21:39:52;;;;;;;26.20;19.55;;;;;;;4.24;64.60;99604.34;258385;1116;114842;-77
2021/04/13 21:45:28;;;;;;;29.23;20.40;;;;;;;4.24;64.84;99602.57;258367;1117;116236;-73
2021/04/13 21:50:47;;;;;;;29.45;21.00;;;;;;;4.21;64.40;99607.06;258377;1117;114384;-70
2021/04/13 21:55:52;;;;;;;26.80;19.75;;;;;;;4.16;64.71;99601.06;258340;1116;114752;-71
2021/04/13 22:01:06;;;;;;;31.40;20.68;;;;;;;4.12;64.56;99604.70;258380;1116;114450;-71
2021/04/13 22:06:33;;;;;;;27.95;19.60;;;;;;;4.17;64.61;99595.75;258107;1118;114316;-75
2021/04/13 22:11:39;;;;;;;32.38;21.23;;;;;;;4.23;64.82;99590.31;258407;1117;114467;-69
2021/04/13 22:16:46;;;;;;;35.13;23.15;;;;;;;4.26;64.97;99595.50;258371;1117;114319;-72
2021/04/13 22:21:54;;;;;;;31.40;21.43;;;;;;;4.25;64.99;99583.25;258387;1116;114513;-67
2021/04/13 22:27:05;;;;;;;33.60;22.75;;;;;;;4.19;64.35;99585.19;258432;1116;116104;-69
2021/04/13 22:32:17;;;;;;;37.10;25.30;;;;;;;4.13;64.64;99578.30;258318;1118;114938;-71
2021/04/13 22:37:46;;;;;;;36.03;24.08;;;;;;;4.10;64.55;99586.28;258446;1116;114481;-69
2021/04/13 22:42:49;;;;;;;33.00;23.48;;;;;;;4.06;64.82;99586.42;258296;1116;114605;-71
2021/04/13 22:47:52;;;;;;;32.35;21.90;;;;;;;4.04;65.11;99583.81;258338;1117;114163;-72
2021/04/13 22:53:09;;;;;;;31.18;21.10;;;;;;;4.05;65.00;99579.44;258387;1117;114528;-69
2021/04/13 22:58:23;;;;;;;26.90;17.38;;;;;;;4.09;65.29;99579.30;258326;1116;114207;-66
2021/04/13 23:03:27;;;;;;;25.33;16.63;;;;;;;4.10;65.25;99572.25;258307;1116;114639;-68
2021/04/13 23:08:30;;;;;;;22.63;15.33;;;;;;;4.14;65.25;99572.12;258294;1117;115468;-68
2021/04/13 23:13:33;;;;;;;20.43;14.43;;;;;;;4.18;65.37;99560.63;258467;1116;114700;-74
2021/04/13 23:18:39;;;;;;;19.85;13.43;;;;;;;4.18;64.95;99562.39;258067;1119;114407;-71
2021/04/13 23:23:42;;;;;;;18.60;13.03;;;;;;;4.14;64.68;99564.22;258345;1116;114548;-73
2021/04/13 23:28:44;;;;;;;15.23;11.10;;;;;;;4.07;64.98;99559.17;258403;1116;114683;-72
2021/04/13 23:33:47;;;;;;;23.80;16.60;;;;;;;4.02;64.99;99556.67;258408;1117;115080;-73
2021/04/13 23:38:53;;;;;;;29.48;21.28;;;;;;;3.97;65.26;99558.55;258301;1118;114507;-73
2021/04/13 23:44:01;;;;;;;38.80;25.85;;;;;;;3.91;65.11;99549.06;258434;1116;114375;-75
2021/04/13 23:49:04;;;;;;;44.70;29.68;;;;;;;3.94;65.31;99548.98;258311;1116;115100;-75
2021/04/13 23:54:07;;;;;;;47.45;32.83;;;;;;;3.98;65.45;99547.13;258295;1118;114938;-77
2021/04/13 23:59:10;;;;;;;49.23;32.38;;;;;;;4.05;65.47;99539.93;258386;1116;114085;-71
